createdAt,value
2018-04-07T00:00:23.403Z,96934.52
2018-04-07T00:02:50.811Z,96937.61
2018-04-07T00:05:18.243Z,96936.25
2018-04-07T00:07:45.669Z,96928.42
2018-04-07T00:10:13.112Z,96932.89
2018-04-07T00:12:41.219Z,96932.62
2018-04-07T00:15:08.685Z,96932.09
2018-04-07T00:17:36.135Z,96931.67
2018-04-07T00:20:03.603Z,96930.27
2018-04-07T00:22:31.032Z,96924.82
2018-04-07T00:24:58.543Z,96924.62
2018-04-07T00:27:25.940Z,96928.05
2018-04-07T00:29:53.376Z,96926.67
2018-04-07T00:32:20.848Z,96922.89
2018-04-07T00:34:48.241Z,96924.41
2018-04-07T00:37:15.652Z,96919.20
2018-04-07T00:39:43.086Z,96919.20
2018-04-07T00:42:10.518Z,96919.33
2018-04-07T00:44:37.918Z,96919.17
2018-04-07T00:47:05.306Z,96920.78
2018-04-07T00:49:32.736Z,96916.61
2018-04-07T00:52:00.157Z,96922.33
2018-04-07T00:54:27.550Z,96919.33
2018-04-07T00:56:55.015Z,96918.70
2018-04-07T00:59:22.545Z,96914.38
2018-04-07T01:01:49.979Z,96910.24
2018-04-07T01:04:17.442Z,96912.38
2018-04-07T01:06:45.638Z,96908.04
2018-04-07T01:09:13.095Z,96915.21
2018-04-07T01:11:40.526Z,96913.48
2018-04-07T01:14:08.004Z,96908.52
2018-04-07T01:16:35.448Z,96910.96
2018-04-07T01:19:02.901Z,96915.21
2018-04-07T01:21:30.357Z,96908.81
2018-04-07T01:23:57.784Z,96906.19
2018-04-07T01:26:25.220Z,96914.24
2018-04-07T01:28:53.176Z,96912.89
2018-04-07T01:31:20.698Z,96905.02
2018-04-07T01:33:48.101Z,96898.68
2018-04-07T01:36:15.546Z,96903.29
2018-04-07T01:38:42.983Z,96905.25
2018-04-07T01:41:10.412Z,96906.22
2018-04-07T01:43:37.929Z,96908.01
2018-04-07T01:46:05.348Z,96909.52
2018-04-07T01:48:32.756Z,96912.68
2018-04-07T01:51:00.197Z,96911.90
2018-04-07T01:53:27.710Z,96908.67
2018-04-07T01:55:55.167Z,96909.75
2018-04-07T01:58:22.609Z,96917.69
2018-04-07T02:00:50.004Z,96909.54
2018-04-07T02:03:17.441Z,96908.09
2018-04-07T02:05:44.898Z,96907.53
2018-04-07T02:08:12.343Z,96907.08
2018-04-07T02:10:39.804Z,96912.14
2018-04-07T02:13:07.279Z,96909.74
2018-04-07T02:15:34.676Z,96907.88
2018-04-07T02:18:02.121Z,96904.57
2018-04-07T02:20:29.549Z,96910.23
2018-04-07T02:22:56.940Z,96898.80
2018-04-07T02:25:24.511Z,96901.70
2018-04-07T02:27:51.970Z,96901.42
2018-04-07T02:30:19.352Z,96907.91
2018-04-07T02:32:46.833Z,96905.29
2018-04-07T02:35:14.433Z,96908.38
2018-04-07T02:37:41.904Z,96913.50
2018-04-07T02:40:09.408Z,96914.03
2018-04-07T02:42:36.867Z,96907.22
2018-04-07T02:45:04.274Z,96908.94
2018-04-07T02:47:31.792Z,96912.39
2018-04-07T02:49:59.173Z,96906.02
2018-04-07T02:52:26.607Z,96915.30
2018-04-07T02:54:54.079Z,96911.30
2018-04-07T02:57:21.480Z,96909.86
2018-04-07T02:59:48.906Z,96912.05
2018-04-07T03:02:16.331Z,96910.83
2018-04-07T03:04:43.794Z,96909.23
2018-04-07T03:07:11.501Z,96914.74
2018-04-07T03:09:38.929Z,96906.55
2018-04-07T03:12:06.427Z,96913.97
2018-04-07T03:14:33.828Z,96918.58
2018-04-07T03:17:01.268Z,96911.30
2018-04-07T03:19:28.701Z,96911.70
2018-04-07T03:21:56.140Z,96915.34
2018-04-07T03:24:23.566Z,96917.32
2018-04-07T03:26:51.011Z,96913.81
2018-04-07T03:29:18.575Z,96917.76
2018-04-07T03:31:46.023Z,96918.52
2018-04-07T03:34:13.451Z,96917.00
2018-04-07T03:36:40.897Z,96912.80
2018-04-07T03:39:08.312Z,96911.46
2018-04-07T03:41:36.220Z,96916.14
2018-04-07T03:44:03.633Z,96909.39
2018-04-07T03:46:31.023Z,96909.88
2018-04-07T03:48:58.438Z,96908.39
2018-04-07T03:51:25.862Z,96912.42
2018-04-07T03:53:53.336Z,96915.11
2018-04-07T03:56:20.716Z,96915.71
2018-04-07T03:58:48.229Z,96915.56
2018-04-07T04:01:15.689Z,96920.70
2018-04-07T04:03:43.114Z,96923.49
2018-04-07T04:06:10.590Z,96917.72
2018-04-07T04:08:38.012Z,96918.38
2018-04-07T04:11:05.414Z,96923.27
2018-04-07T04:13:32.861Z,96932.94
2018-04-07T04:16:00.445Z,96920.97
2018-04-07T04:18:28.735Z,96919.69
2018-04-07T04:20:57.306Z,96928.09
2018-04-07T04:23:24.785Z,96926.56
2018-04-07T04:25:52.156Z,96923.38
2018-04-07T04:28:19.600Z,96927.08
2018-04-07T04:30:47.027Z,96922.20
2018-04-07T04:33:14.438Z,96932.05
2018-04-07T04:35:41.857Z,96924.68
2018-04-07T04:38:09.385Z,96933.91
2018-04-07T04:40:36.938Z,96937.73
2018-04-07T04:43:04.326Z,96941.50
2018-04-07T04:45:32.017Z,96936.23
2018-04-07T04:47:59.482Z,96936.63
2018-04-07T04:50:27.016Z,96943.77
2018-04-07T04:52:54.631Z,96948.05
2018-04-07T04:55:22.470Z,96945.63
2018-04-07T04:57:49.982Z,96946.47
2018-04-07T05:00:17.435Z,96945.58
2018-04-07T05:02:45.001Z,96951.31
2018-04-07T05:05:12.470Z,96957.69
2018-04-07T05:07:39.928Z,96958.81
2018-04-07T05:10:07.413Z,96959.49
2018-04-07T05:12:34.809Z,96955.10
2018-04-07T05:15:02.252Z,96967.75
2018-04-07T05:17:29.684Z,96966.09
2018-04-07T05:19:57.080Z,96964.72
2018-04-07T05:22:24.513Z,96970.17
2018-04-07T05:24:52.218Z,96972.23
2018-04-07T05:27:20.048Z,96964.73
2018-04-07T05:29:47.530Z,96961.88
2018-04-07T05:32:15.118Z,96974.95
2018-04-07T05:34:42.583Z,96971.42
2018-04-07T05:37:10.025Z,96972.02
2018-04-07T05:39:37.469Z,96971.12
2018-04-07T05:42:04.932Z,96970.62
2018-04-07T05:44:32.379Z,96970.38
2018-04-07T05:47:00.514Z,96975.42
2018-04-07T05:49:33.694Z,96975.70
2018-04-07T05:52:01.373Z,96977.28
2018-04-07T05:54:28.808Z,96980.32
2018-04-07T05:56:56.195Z,96979.13
2018-04-07T05:59:23.633Z,96982.67
2018-04-07T06:01:51.064Z,96985.90
2018-04-07T06:04:18.490Z,96983.17
2018-04-07T06:06:45.884Z,96985.35
2018-04-07T06:09:13.326Z,96984.95
2018-04-07T06:11:40.728Z,96988.44
2018-04-07T06:14:08.127Z,96994.98
2018-04-07T06:16:35.617Z,96979.74
2018-04-07T06:19:03.097Z,96979.50
2018-04-07T06:21:30.610Z,96985.47
2018-04-07T06:23:58.023Z,96981.78
2018-04-07T06:26:25.444Z,96981.14
2018-04-07T06:28:52.905Z,96980.03
2018-04-07T06:31:20.410Z,96978.02
2018-04-07T06:33:47.879Z,96977.52
2018-04-07T06:36:15.325Z,96979.48
2018-04-07T06:38:42.763Z,96983.25
2018-04-07T06:41:10.230Z,96986.97
2018-04-07T06:43:37.806Z,96984.38
2018-04-07T06:46:05.278Z,96972.27
2018-04-07T06:48:32.676Z,96984.44
2018-04-07T06:51:00.155Z,96981.75
2018-04-07T06:53:27.621Z,96979.66
2018-04-07T06:55:55.044Z,96985.26
2018-04-07T06:58:22.658Z,96975.67
2018-04-07T07:00:50.054Z,96971.52
2018-04-07T07:03:17.546Z,96971.15
2018-04-07T07:05:44.993Z,96970.06
2018-04-07T07:08:12.417Z,96966.91
2018-04-07T07:10:39.954Z,96966.47
2018-04-07T07:13:07.389Z,96962.84
2018-04-07T07:15:34.856Z,96960.53
2018-04-07T07:18:02.284Z,96960.16
2018-04-07T07:20:29.706Z,96960.97
2018-04-07T07:22:57.157Z,96961.95
2018-04-07T07:25:24.614Z,96954.75
2018-04-07T07:27:52.484Z,96953.42
2018-04-07T07:30:19.884Z,96959.92
2018-04-07T07:32:47.328Z,96963.67
2018-04-07T07:35:14.726Z,96972.47
2018-04-07T07:37:42.182Z,96976.68
2018-04-07T07:40:09.710Z,96984.27
2018-04-07T07:42:37.300Z,96982.37
2018-04-07T07:45:04.770Z,96984.50
2018-04-07T07:47:32.164Z,96988.48
2018-04-07T07:49:59.610Z,96988.55
2018-04-07T07:52:27.004Z,96990.44
2018-04-07T07:54:54.423Z,96992.41
2018-04-07T07:57:21.877Z,97003.85
2018-04-07T07:59:49.378Z,97006.50
2018-04-07T08:02:16.871Z,97006.47
2018-04-07T08:04:44.421Z,96998.00
2018-04-07T08:07:11.961Z,96995.52
2018-04-07T08:09:39.422Z,96994.36
2018-04-07T08:12:06.854Z,96991.84
2018-04-07T08:14:34.354Z,96988.08
2018-04-07T08:17:01.917Z,96987.32
2018-04-07T08:19:30.016Z,96985.54
2018-04-07T08:21:57.685Z,96983.06
2018-04-07T08:24:25.117Z,96987.89
2018-04-07T08:26:52.570Z,96990.94
2018-04-07T08:29:20.048Z,96981.32
2018-04-07T08:31:47.453Z,96984.72
2018-04-07T08:34:14.964Z,96983.14
2018-04-07T08:36:42.749Z,96985.58
2018-04-07T08:39:10.698Z,96986.34
2018-04-07T08:41:38.103Z,96973.38
2018-04-07T08:44:05.760Z,96975.96
2018-04-07T08:46:33.184Z,96979.73
2018-04-07T08:49:00.625Z,96976.19
2018-04-07T08:51:28.063Z,96980.08
2018-04-07T08:53:55.598Z,96980.20
2018-04-07T08:56:23.344Z,96982.06
2018-04-07T08:58:50.776Z,96973.20
2018-04-07T09:01:18.186Z,96971.81
2018-04-07T09:03:45.621Z,96980.39
2018-04-07T09:06:13.056Z,96972.71
2018-04-07T09:08:40.545Z,96968.13
2018-04-07T09:11:07.992Z,96960.68
2018-04-07T09:13:35.475Z,96961.09
2018-04-07T09:16:02.904Z,96957.84
2018-04-07T09:18:30.322Z,96962.82
2018-04-07T09:20:57.856Z,96959.55
2018-04-07T09:23:25.330Z,96950.30
2018-04-07T09:25:53.007Z,96956.69
2018-04-07T09:28:20.388Z,96958.41
2018-04-07T09:30:48.435Z,96954.86
2018-04-07T09:33:15.874Z,96950.56
2018-04-07T09:35:43.452Z,96940.23
2018-04-07T09:38:10.927Z,96936.55
2018-04-07T09:40:38.369Z,96940.00
2018-04-07T09:43:05.817Z,96945.47
2018-04-07T09:45:33.246Z,96944.96
2018-04-07T09:48:00.643Z,96939.58
2018-04-07T09:50:28.088Z,96935.42
2018-04-07T09:52:58.809Z,96935.30
2018-04-07T09:55:26.334Z,96926.16
2018-04-07T09:57:53.740Z,96931.92
2018-04-07T10:00:21.190Z,96920.97
2018-04-07T10:02:48.623Z,96918.38
2018-04-07T10:05:16.136Z,96913.72
2018-04-07T10:07:43.542Z,96915.31
2018-04-07T10:10:10.977Z,96913.87
2018-04-07T10:12:38.470Z,96909.08
2018-04-07T10:15:05.905Z,96904.20
2018-04-07T10:17:33.538Z,96894.98
2018-04-07T10:20:00.967Z,96895.31
2018-04-07T10:22:28.420Z,96891.95
2018-04-07T10:24:56.450Z,96892.70
2018-04-07T10:27:23.992Z,96877.80
2018-04-07T10:29:51.506Z,96880.73
2018-04-07T10:32:18.939Z,96870.13
2018-04-07T10:34:46.400Z,96863.26
2018-04-07T10:37:13.845Z,96864.41
2018-04-07T10:39:41.303Z,96861.63
2018-04-07T10:42:08.769Z,96867.81
2018-04-07T10:44:36.274Z,96871.28
2018-04-07T10:47:03.772Z,96867.96
2018-04-07T10:49:31.234Z,96869.33
2018-04-07T10:51:58.685Z,96862.58
2018-04-07T10:54:26.097Z,96860.54
2018-04-07T10:56:53.734Z,96864.20
2018-04-07T10:59:21.413Z,96858.45
2018-04-07T11:01:48.917Z,96850.31
2018-04-07T11:04:16.375Z,96849.12
2018-04-07T11:06:44.049Z,96845.80
2018-04-07T11:09:11.684Z,96839.35
2018-04-07T11:11:42.451Z,96841.83
2018-04-07T11:14:09.901Z,96828.94
2018-04-07T11:16:37.416Z,96831.39
2018-04-07T11:19:04.913Z,96830.70
2018-04-07T11:21:32.538Z,96822.19
2018-04-07T11:23:59.969Z,96821.47
2018-04-07T11:26:27.431Z,96821.30
2018-04-07T11:28:54.832Z,96824.38
2018-04-07T11:31:22.409Z,96828.80
2018-04-07T11:33:49.862Z,96824.79
2018-04-07T11:36:17.448Z,96830.13
2018-04-07T11:38:45.608Z,96824.92
2018-04-07T11:41:13.036Z,96820.64
2018-04-07T11:43:40.486Z,96813.55
2018-04-07T11:46:07.997Z,96814.84
2018-04-07T11:48:35.548Z,96813.37
2018-04-07T11:51:02.982Z,96807.22
2018-04-07T11:53:30.427Z,96805.72
2018-04-07T11:55:57.884Z,96806.43
2018-04-07T11:58:25.357Z,96812.04
2018-04-07T12:00:52.832Z,96806.90
2018-04-07T12:03:20.324Z,96804.48
2018-04-07T12:05:47.762Z,96791.90
2018-04-07T12:08:15.188Z,96792.82
2018-04-07T12:10:42.649Z,96796.39
2018-04-07T12:13:13.340Z,96787.06
2018-04-07T12:15:40.783Z,96786.83
2018-04-07T12:18:08.246Z,96777.27
2018-04-07T12:20:35.673Z,96768.13
2018-04-07T12:23:03.140Z,96760.69
2018-04-07T12:25:30.599Z,96766.42
2018-04-07T12:27:58.066Z,96761.09
2018-04-07T12:30:25.593Z,96753.86
2018-04-07T12:32:52.994Z,96748.94
2018-04-07T12:35:20.481Z,96746.34
2018-04-07T12:37:47.893Z,96740.41
2018-04-07T12:40:15.410Z,96742.23
2018-04-07T12:42:42.912Z,96742.25
2018-04-07T12:45:10.402Z,96735.09
2018-04-07T12:47:37.869Z,96734.80
2018-04-07T12:50:05.375Z,96732.81
2018-04-07T12:52:32.910Z,96722.84
2018-04-07T12:55:00.314Z,96719.73
2018-04-07T12:57:27.832Z,96722.17
2018-04-07T12:59:55.296Z,96711.77
2018-04-07T13:02:22.792Z,96720.92
2018-04-07T13:04:50.275Z,96712.27
2018-04-07T13:07:17.685Z,96710.02
2018-04-07T13:09:48.380Z,96699.39
2018-04-07T13:12:15.829Z,96708.89
2018-04-07T13:14:43.301Z,96707.20
2018-04-07T13:17:10.733Z,96700.69
2018-04-07T13:19:38.152Z,96696.91
2018-04-07T13:22:05.595Z,96701.50
2018-04-07T13:24:33.094Z,96690.17
2018-04-07T13:27:03.639Z,96682.84
2018-04-07T13:29:31.136Z,96680.73
2018-04-07T13:31:58.638Z,96678.66
2018-04-07T13:34:26.077Z,96667.80
2018-04-07T13:36:53.654Z,96661.87
2018-04-07T13:39:22.125Z,96656.77
2018-04-07T13:41:49.584Z,96652.99
2018-04-07T13:44:20.069Z,96655.80
2018-04-07T13:46:47.550Z,96656.76
2018-04-07T13:49:15.082Z,96651.16
2018-04-07T13:51:42.495Z,96643.25
2018-04-07T13:54:09.925Z,96638.55
2018-04-07T13:56:37.398Z,96632.91
2018-04-07T13:59:04.916Z,96633.14
2018-04-07T14:01:33.981Z,96635.47
2018-04-07T14:04:01.502Z,96621.23
2018-04-07T14:06:28.965Z,96616.67
2018-04-07T14:08:56.434Z,96622.70
2018-04-07T14:11:23.867Z,96614.77
2018-04-07T14:13:51.345Z,96616.60
2018-04-07T14:16:18.841Z,96612.35
2018-04-07T14:18:46.438Z,96616.11
2018-04-07T14:21:13.937Z,96616.94
2018-04-07T14:23:41.397Z,96616.12
2018-04-07T14:26:12.021Z,96609.48
2018-04-07T14:28:39.551Z,96607.09
2018-04-07T14:31:06.983Z,96603.69
2018-04-07T14:33:34.461Z,96593.91
2018-04-07T14:36:01.941Z,96592.83
2018-04-07T14:38:29.359Z,96591.52
2018-04-07T14:40:56.845Z,96589.13
2018-04-07T14:43:24.410Z,96582.88
2018-04-07T14:45:51.884Z,96575.05
2018-04-07T14:48:19.642Z,96574.56
2018-04-07T14:50:47.122Z,96567.39
2018-04-07T14:53:14.592Z,96569.64
2018-04-07T14:55:42.057Z,96566.89
2018-04-07T14:58:09.495Z,96572.39
2018-04-07T15:00:36.896Z,96569.55
2018-04-07T15:03:04.370Z,96573.79
2018-04-07T15:05:31.794Z,96560.27
2018-04-07T15:07:59.232Z,96560.41
2018-04-07T15:10:26.673Z,96555.73
2018-04-07T15:12:54.111Z,96549.66
2018-04-07T15:15:21.560Z,96556.64
2018-04-07T15:17:48.988Z,96551.57
2018-04-07T15:20:16.459Z,96549.17
2018-04-07T15:22:43.930Z,96545.80
2018-04-07T15:25:11.436Z,96537.66
2018-04-07T15:27:38.892Z,96532.70
2018-04-07T15:30:06.329Z,96530.11
2018-04-07T15:32:33.740Z,96540.52
2018-04-07T15:35:01.499Z,96550.20
2018-04-07T15:37:29.003Z,96563.63
2018-04-07T15:39:56.435Z,96559.48
2018-04-07T15:42:23.869Z,96553.09
2018-04-07T15:44:51.335Z,96544.50
2018-04-07T15:47:18.927Z,96544.55
2018-04-07T15:49:46.374Z,96541.42
2018-04-07T15:52:13.804Z,96535.83
2018-04-07T15:54:41.310Z,96533.25
2018-04-07T15:57:11.789Z,96534.19
2018-04-07T15:59:39.221Z,96537.56
2018-04-07T16:02:06.641Z,96526.02
2018-04-07T16:04:34.078Z,96520.51
2018-04-07T16:07:01.642Z,96510.11
2018-04-07T16:09:29.217Z,96513.88
2018-04-07T16:11:56.715Z,96515.70
2018-04-07T16:14:24.276Z,96523.44
2018-04-07T16:16:51.871Z,96524.78
2018-04-07T16:19:19.280Z,96535.10
2018-04-07T16:21:46.718Z,96535.00
2018-04-07T16:24:14.114Z,96533.52
2018-04-07T16:26:41.574Z,96533.88
2018-04-07T16:29:08.997Z,96526.41
2018-04-07T16:31:36.777Z,96521.39
2018-04-07T16:34:04.240Z,96515.73
2018-04-07T16:36:31.706Z,96516.30
2018-04-07T16:38:59.242Z,96505.55
2018-04-07T16:41:26.660Z,96498.86
2018-04-07T16:43:54.095Z,96493.55
2018-04-07T16:46:21.497Z,96500.82
2018-04-07T16:48:48.937Z,96515.21
2018-04-07T16:51:16.411Z,96511.00
2018-04-07T16:53:43.838Z,96506.81
2018-04-07T16:56:11.268Z,96504.55
2018-04-07T16:58:38.742Z,96510.39
2018-04-07T17:01:13.113Z,96510.39
2018-04-07T17:03:40.710Z,96516.28
2018-04-07T17:06:08.495Z,96509.16
2018-04-07T17:08:36.126Z,96512.77
2018-04-07T17:11:03.572Z,96514.74
2018-04-07T17:13:31.030Z,96516.42
2018-04-07T17:15:58.432Z,96518.52
2018-04-07T17:18:25.852Z,96506.64
2018-04-07T17:20:53.294Z,96510.17
2018-04-07T17:23:20.779Z,96513.73
2018-04-07T17:25:48.185Z,96511.89
2018-04-07T17:28:15.719Z,96516.30
2018-04-07T17:30:43.629Z,96520.81
2018-04-07T17:33:11.071Z,96520.19
2018-04-07T17:35:38.563Z,96518.37
2018-04-07T17:38:09.184Z,96517.95
2018-04-07T17:40:36.689Z,96522.84
2018-04-07T17:43:04.101Z,96514.22
2018-04-07T17:45:31.566Z,96512.73
2018-04-07T17:47:59.060Z,96519.92
2018-04-07T17:50:26.577Z,96519.16
2018-04-07T17:52:54.096Z,96518.31
2018-04-07T17:55:24.712Z,96524.50
2018-04-07T17:57:52.141Z,96515.70
2018-04-07T18:00:20.240Z,96517.39
2018-04-07T18:02:47.681Z,96516.17
2018-04-07T18:05:15.100Z,96514.02
2018-04-07T18:07:42.663Z,96521.95
2018-04-07T18:10:10.161Z,96526.60
2018-04-07T18:12:37.608Z,96529.59
2018-04-07T18:15:05.104Z,96525.66
2018-04-07T18:17:32.538Z,96531.81
2018-04-07T18:19:59.988Z,96527.88
2018-04-07T18:22:30.394Z,96532.31
2018-04-07T18:24:57.928Z,96535.61
2018-04-07T18:27:25.397Z,96534.99
2018-04-07T18:29:52.840Z,96540.90
2018-04-07T18:32:20.232Z,96545.72
2018-04-07T18:34:47.814Z,96548.78
2018-04-07T18:37:15.293Z,96554.07
2018-04-07T18:39:42.723Z,96559.78
2018-04-07T18:42:10.236Z,96564.59
2018-04-07T18:44:37.743Z,96564.36
2018-04-07T18:47:05.246Z,96567.74
2018-04-07T18:49:32.805Z,96561.77
2018-04-07T18:52:00.251Z,96571.61
2018-04-07T18:54:30.815Z,96571.03
2018-04-07T18:56:58.280Z,96575.00
2018-04-07T18:59:25.777Z,96568.26
2018-04-07T19:01:53.237Z,96572.25
2018-04-07T19:04:20.801Z,96582.56
2018-04-07T19:06:48.336Z,96585.30
2018-04-07T19:09:15.824Z,96587.86
2018-04-07T19:11:43.303Z,96585.30
2018-04-07T19:14:10.760Z,96582.42
2018-04-07T19:16:38.231Z,96585.93
2018-04-07T19:19:05.758Z,96590.14
2018-04-07T19:21:36.362Z,96594.13
2018-04-07T19:24:03.846Z,96597.58
2018-04-07T19:26:31.399Z,96599.09
2018-04-07T19:28:58.939Z,96598.30
2018-04-07T19:31:26.525Z,96594.77
2018-04-07T19:33:53.970Z,96595.33
2018-04-07T19:36:21.484Z,96601.28
2018-04-07T19:38:48.954Z,96602.83
2018-04-07T19:41:16.489Z,96601.66
2018-04-07T19:43:43.862Z,96606.80
2018-04-07T19:46:11.293Z,96596.30
2018-04-07T19:48:38.894Z,96599.77
2018-04-07T19:51:06.426Z,96599.72
2018-04-07T19:53:33.884Z,96590.69
2018-04-07T19:56:01.295Z,96588.84
2018-04-07T19:58:28.740Z,96590.06
2018-04-07T20:00:59.392Z,96594.77
2018-04-07T20:03:26.884Z,96592.67
2018-04-07T20:05:54.359Z,96584.34
2018-04-07T20:08:21.843Z,96579.42
2018-04-07T20:10:49.335Z,96585.11
2018-04-07T20:13:16.733Z,96584.00
2018-04-07T20:15:44.227Z,96588.58
2018-04-07T20:18:11.674Z,96586.55
2018-04-07T20:20:39.858Z,96588.23
2018-04-07T20:23:07.293Z,96585.88
2018-04-07T20:25:34.700Z,96588.23
2018-04-07T20:28:05.215Z,96586.30
2018-04-07T20:30:32.771Z,96582.54
2018-04-07T20:33:00.252Z,96582.75
2018-04-07T20:35:27.680Z,96587.67
2018-04-07T20:37:55.443Z,96587.19
2018-04-07T20:40:22.860Z,96574.48
2018-04-07T20:42:50.338Z,96580.75
2018-04-07T20:45:17.806Z,96578.03
2018-04-07T20:47:45.250Z,96569.33
2018-04-07T20:50:12.781Z,96575.30
2018-04-07T20:52:40.596Z,96570.09
2018-04-07T20:55:08.009Z,96572.23
2018-04-07T20:57:38.621Z,96570.30
2018-04-07T21:00:06.091Z,96566.41
2018-04-07T21:02:33.970Z,96565.42
2018-04-07T21:05:01.498Z,96560.14
2018-04-07T21:07:28.910Z,96551.55
2018-04-07T21:09:56.399Z,96560.52
2018-04-07T21:12:23.871Z,96557.80
2018-04-07T21:14:51.297Z,96552.52
2018-04-07T21:17:18.783Z,96550.08
2018-04-07T21:19:46.218Z,96554.86
2018-04-07T21:22:13.639Z,96550.78
2018-04-07T21:24:44.214Z,96551.77
2018-04-07T21:27:11.652Z,96547.03
2018-04-07T21:29:39.070Z,96546.25
2018-04-07T21:32:06.516Z,96544.47
2018-04-07T21:34:33.927Z,96545.02
2018-04-07T21:37:01.425Z,96541.27
2018-04-07T21:39:28.857Z,96547.30
2018-04-07T21:41:56.464Z,96550.00
2018-04-07T21:44:23.953Z,96555.81
2018-04-07T21:46:51.427Z,96555.40
2018-04-07T21:49:18.897Z,96561.24
2018-04-07T21:51:46.449Z,96557.75
2018-04-07T21:54:17.095Z,96558.94
2018-04-07T21:56:44.555Z,96555.77
2018-04-07T21:59:11.970Z,96557.13
2018-04-07T22:01:39.421Z,96553.09
2018-04-07T22:04:06.855Z,96550.24
2018-04-07T22:06:34.244Z,96558.31
2018-04-07T22:09:01.697Z,96548.00
2018-04-07T22:11:29.316Z,96550.70
2018-04-07T22:13:56.823Z,96543.32
2018-04-07T22:16:24.306Z,96548.78
2018-04-07T22:18:51.760Z,96547.45
2018-04-07T22:21:19.277Z,96545.44
2018-04-07T22:23:46.709Z,96548.89
2018-04-07T22:26:17.319Z,96546.30
2018-04-07T22:28:44.785Z,96548.70
2018-04-07T22:31:12.179Z,96552.07
2018-04-07T22:33:39.619Z,96541.20
2018-04-07T22:36:07.877Z,96543.27
2018-04-07T22:38:35.305Z,96545.47
2018-04-07T22:41:02.811Z,96547.49
2018-04-07T22:43:30.270Z,96550.91
2018-04-07T22:45:57.692Z,96551.03
2018-04-07T22:48:25.181Z,96541.73
2018-04-07T22:50:52.615Z,96543.95
2018-04-07T22:53:20.075Z,96540.88
2018-04-07T22:55:47.503Z,96548.35
2018-04-07T22:58:14.901Z,96549.33
2018-04-07T23:00:42.337Z,96556.28
2018-04-07T23:03:09.830Z,96543.34
2018-04-07T23:05:37.340Z,96544.97
2018-04-07T23:08:04.748Z,96550.13
2018-04-07T23:10:32.224Z,96543.97
2018-04-07T23:12:59.666Z,96538.22
2018-04-07T23:15:27.938Z,96543.21
2018-04-07T23:17:55.367Z,96532.74
2018-04-07T23:20:22.839Z,96529.48
2018-04-07T23:22:53.796Z,96518.24
2018-04-07T23:25:21.193Z,96514.70
2018-04-07T23:27:48.645Z,96521.08
2018-04-07T23:30:16.054Z,96517.27
2018-04-07T23:32:43.495Z,96511.66
2018-04-07T23:35:10.901Z,96508.23
2018-04-07T23:37:38.346Z,96508.31
2018-04-07T23:40:05.771Z,96513.38
2018-04-07T23:42:33.201Z,96509.75
2018-04-07T23:45:00.593Z,96504.88
2018-04-07T23:47:28.003Z,96508.78
2018-04-07T23:49:55.970Z,96513.27
2018-04-07T23:52:23.388Z,96506.58
2018-04-07T23:54:50.878Z,96506.41
2018-04-07T23:57:21.567Z,96505.41
2018-04-07T23:59:49.025Z,96506.92
